createdAt,value
2022-12-14T00:01:23.754Z,20.67
2022-12-14T00:03:53.776Z,16.95
2022-12-14T00:06:23.123Z,18.35
2022-12-14T00:08:51.965Z,17.27
2022-12-14T00:11:20.956Z,16.23
2022-12-14T00:13:49.143Z,18.15
2022-12-14T00:16:18.440Z,17.80
2022-12-14T00:18:49.604Z,17.02
2022-12-14T00:21:18.654Z,11.65
2022-12-14T00:23:47.240Z,19.60
2022-12-14T00:26:16.540Z,18.63
2022-12-14T00:28:45.403Z,20.27
2022-12-14T00:31:13.374Z,16.67
2022-12-14T00:33:41.213Z,18.98
2022-12-14T00:36:10.143Z,18.00
2022-12-14T00:38:39.676Z,15.75
2022-12-14T00:41:07.919Z,18.98
2022-12-14T00:43:35.564Z,18.60
2022-12-14T00:46:03.577Z,18.40
2022-12-14T00:48:32.091Z,16.52
2022-12-14T00:51:00.069Z,16.27
2022-12-14T00:53:27.903Z,16.67
2022-12-14T00:55:57.531Z,16.67
2022-12-14T00:58:27.839Z,17.35
2022-12-14T01:01:03.055Z,16.02
2022-12-14T01:03:31.743Z,19.55
2022-12-14T01:05:59.936Z,19.60
2022-12-14T01:08:35.505Z,18.75
2022-12-14T01:11:08.815Z,15.63
2022-12-14T01:13:36.866Z,19.10
2022-12-14T01:16:05.987Z,17.92
2022-12-14T01:18:35.158Z,17.63
2022-12-14T01:21:14.494Z,18.27
2022-12-14T01:23:42.557Z,18.35
2022-12-14T01:26:11.913Z,16.80
2022-12-14T01:28:39.644Z,18.35
2022-12-14T01:31:09.365Z,19.13
2022-12-14T01:33:37.188Z,18.20
2022-12-14T01:36:06.745Z,19.70
2022-12-14T01:38:34.424Z,17.80
2022-12-14T01:41:02.145Z,18.30
2022-12-14T01:43:49.843Z,18.67
2022-12-14T01:46:20.521Z,19.17
2022-12-14T01:48:49.965Z,18.17
2022-12-14T01:51:17.645Z,16.70
2022-12-14T01:53:45.404Z,18.65
2022-12-14T01:56:13.111Z,18.90
2022-12-14T01:58:41.252Z,18.55
2022-12-14T02:01:11.618Z,19.58
2022-12-14T02:03:42.168Z,20.15
2022-12-14T02:06:11.731Z,19.08
2022-12-14T02:08:40.604Z,19.08
2022-12-14T02:11:08.383Z,18.05
2022-12-14T02:13:37.785Z,19.30
2022-12-14T02:16:05.967Z,19.33
2022-12-14T02:18:35.342Z,19.73
2022-12-14T02:21:20.716Z,20.85
2022-12-14T02:24:15.627Z,20.25
2022-12-14T02:27:19.856Z,19.38
2022-12-14T02:30:09.134Z,18.08
2022-12-14T02:32:58.906Z,18.00
2022-12-14T02:35:34.123Z,19.80
2022-12-14T02:38:06.969Z,19.23
2022-12-14T02:40:39.240Z,19.65
2022-12-14T02:43:13.002Z,21.00
2022-12-14T02:45:44.452Z,20.02
2022-12-14T02:48:17.391Z,20.02
2022-12-14T02:50:52.379Z,19.38
2022-12-14T02:53:23.401Z,18.50
2022-12-14T02:55:52.506Z,19.77
2022-12-14T02:58:24.046Z,17.35
2022-12-14T03:00:54.232Z,19.63
2022-12-14T03:03:22.069Z,20.38
2022-12-14T03:05:56.875Z,18.67
2022-12-14T03:08:25.722Z,18.30
2022-12-14T03:10:56.425Z,20.20
2022-12-14T03:13:27.227Z,18.70
2022-12-14T03:15:59.595Z,18.63
2022-12-14T03:18:29.482Z,18.85
2022-12-14T03:20:59.419Z,18.45
2022-12-14T03:23:30.536Z,19.42
2022-12-14T03:26:04.755Z,16.25
2022-12-14T03:28:37.268Z,18.15
2022-12-14T03:31:09.780Z,17.92
2022-12-14T03:33:38.763Z,18.67
2022-12-14T03:36:11.009Z,18.13
2022-12-14T03:38:41.846Z,17.83
2022-12-14T03:41:18.145Z,19.23
2022-12-14T03:43:54.390Z,19.13
2022-12-14T03:46:32.511Z,18.10
2022-12-14T03:49:04.176Z,21.25
2022-12-14T03:51:35.770Z,19.30
2022-12-14T03:54:10.014Z,17.90
2022-12-14T03:56:42.103Z,19.13
2022-12-14T03:59:12.670Z,17.88
2022-12-14T04:01:46.445Z,19.50
2022-12-14T04:04:21.763Z,18.60
2022-12-14T04:06:54.849Z,18.05
2022-12-14T04:09:29.267Z,19.50
2022-12-14T04:12:20.448Z,17.02
2022-12-14T04:15:10.225Z,18.52
2022-12-14T04:17:58.317Z,17.90
2022-12-14T04:20:28.926Z,19.48
2022-12-14T04:22:59.605Z,19.83
2022-12-14T04:25:47.148Z,20.52
2022-12-14T04:28:32.748Z,17.58
2022-12-14T04:31:01.254Z,18.52
2022-12-14T04:33:48.457Z,19.05
2022-12-14T04:36:19.490Z,18.33
2022-12-14T04:38:49.169Z,21.75
2022-12-14T04:41:20.495Z,19.30
2022-12-14T04:43:49.554Z,18.40
2022-12-14T04:46:19.059Z,18.65
2022-12-14T04:48:51.105Z,19.75
2022-12-14T04:51:22.410Z,18.85
2022-12-14T04:53:53.195Z,14.68
2022-12-14T04:56:24.322Z,18.33
2022-12-14T04:58:52.194Z,12.73
2022-12-14T05:01:28.973Z,18.95
2022-12-14T05:04:07.005Z,18.48
2022-12-14T05:06:41.743Z,20.85
2022-12-14T05:09:16.272Z,19.60
2022-12-14T05:11:55.936Z,17.98
2022-12-14T05:14:28.047Z,19.48
2022-12-14T05:16:55.791Z,18.13
2022-12-14T05:19:26.674Z,19.15
2022-12-14T05:21:54.882Z,14.55
2022-12-14T05:24:22.546Z,18.75
2022-12-14T05:26:50.223Z,19.02
2022-12-14T05:29:17.867Z,19.15
2022-12-14T05:31:49.413Z,19.33
2022-12-14T05:36:46.586Z,20.75
2022-12-14T05:39:14.598Z,19.35
2022-12-14T05:41:42.474Z,19.83
2022-12-14T05:44:10.281Z,20.58
2022-12-14T05:46:38.138Z,18.25
2022-12-14T05:49:05.996Z,20.45
2022-12-14T05:51:33.819Z,20.77
2022-12-14T05:54:03.113Z,21.33
2022-12-14T05:56:31.123Z,21.33
2022-12-14T05:58:58.953Z,22.05
2022-12-14T06:01:26.783Z,21.25
2022-12-14T06:03:54.643Z,21.15
2022-12-14T06:06:22.470Z,18.77
2022-12-14T06:08:50.461Z,22.42
2022-12-14T06:11:22.026Z,22.10
2022-12-14T06:13:49.959Z,22.60
2022-12-14T06:16:19.198Z,21.85
2022-12-14T06:18:48.923Z,21.52
2022-12-14T06:21:18.102Z,21.48
2022-12-14T06:23:46.301Z,20.50
2022-12-14T06:26:15.476Z,23.17
2022-12-14T06:28:44.884Z,20.50
2022-12-14T06:31:16.819Z,22.55
2022-12-14T06:33:44.636Z,22.83
2022-12-14T06:36:17.769Z,21.77
2022-12-14T06:38:45.469Z,22.25
2022-12-14T06:41:13.431Z,23.98
2022-12-14T06:43:41.103Z,23.17
2022-12-14T06:46:15.121Z,22.23
2022-12-14T06:48:44.061Z,24.50
2022-12-14T06:51:12.409Z,21.20
2022-12-14T06:53:40.171Z,21.63
2022-12-14T06:56:09.316Z,21.40
2022-12-14T06:58:37.280Z,24.42
2022-12-14T07:01:05.833Z,24.55
2022-12-14T07:03:35.579Z,22.85
2022-12-14T07:06:04.350Z,23.23
2022-12-14T07:08:33.685Z,20.55
2022-12-14T07:11:02.776Z,22.13
2022-12-14T07:13:30.794Z,24.02
2022-12-14T07:16:00.394Z,23.63
2022-12-14T07:18:28.569Z,27.73
2022-12-14T07:20:58.932Z,26.80
2022-12-14T07:23:28.186Z,26.25
2022-12-14T07:26:02.238Z,29.08
2022-12-14T07:28:30.913Z,25.98
2022-12-14T07:31:00.203Z,29.38
2022-12-14T07:33:29.215Z,31.33
2022-12-14T07:36:04.997Z,30.23
2022-12-14T07:38:33.493Z,25.38
2022-12-14T07:41:05.870Z,23.45
2022-12-14T07:43:33.715Z,24.30
2022-12-14T07:46:02.664Z,24.08
2022-12-14T07:48:30.657Z,21.63
2022-12-14T07:51:04.934Z,23.17
2022-12-14T07:53:33.222Z,23.33
2022-12-14T07:56:05.954Z,26.42
2022-12-14T07:58:34.012Z,22.65
2022-12-14T08:01:16.006Z,23.20
2022-12-14T08:06:14.211Z,21.08
2022-12-14T08:08:42.209Z,20.77
2022-12-14T08:11:10.374Z,21.55
2022-12-14T08:13:38.969Z,23.77
2022-12-14T08:16:08.477Z,26.02
2022-12-14T08:18:36.603Z,57.60
2022-12-14T08:21:05.901Z,57.20
2022-12-14T08:23:35.592Z,26.95
2022-12-14T08:26:04.723Z,23.35
2022-12-14T08:28:33.709Z,24.73
2022-12-14T08:31:06.306Z,24.98
2022-12-14T08:33:34.424Z,25.85
2022-12-14T08:36:07.109Z,23.35
2022-12-14T08:38:36.425Z,23.52
2022-12-14T08:41:05.031Z,25.48
2022-12-14T08:43:33.582Z,23.77
2022-12-14T08:46:02.281Z,23.65
2022-12-14T08:48:30.269Z,24.77
2022-12-14T08:51:02.784Z,23.15
2022-12-14T08:53:30.826Z,22.95
2022-12-14T08:56:00.783Z,23.35
2022-12-14T08:58:28.504Z,23.05
2022-12-14T09:01:03.255Z,24.35
2022-12-14T09:03:31.714Z,24.23
2022-12-14T09:06:04.426Z,22.65
2022-12-14T09:08:32.678Z,23.48
2022-12-14T09:11:02.144Z,24.00
2022-12-14T09:13:30.869Z,24.92
2022-12-14T09:16:00.056Z,24.23
2022-12-14T09:18:28.659Z,24.58
2022-12-14T09:20:57.041Z,22.25
2022-12-14T09:23:25.553Z,23.95
2022-12-14T09:26:02.016Z,23.50
2022-12-14T09:28:30.404Z,27.58
2022-12-14T09:30:58.588Z,24.73
2022-12-14T09:33:27.004Z,25.95
2022-12-14T09:35:58.062Z,24.08
2022-12-14T09:38:25.976Z,26.17
2022-12-14T09:40:57.841Z,24.90
2022-12-14T09:43:40.444Z,24.20
2022-12-14T09:46:25.404Z,24.73
2022-12-14T09:48:53.396Z,25.63
2022-12-14T09:51:22.895Z,26.00
2022-12-14T09:53:57.936Z,23.65
2022-12-14T09:56:28.671Z,24.45
2022-12-14T09:59:00.280Z,22.13
2022-12-14T10:02:13.937Z,26.55
2022-12-14T10:04:47.801Z,25.15
2022-12-14T10:07:20.227Z,26.92
2022-12-14T10:09:50.931Z,25.25
2022-12-14T10:12:34.084Z,24.17
2022-12-14T10:15:15.407Z,26.38
2022-12-14T10:17:56.741Z,26.10
2022-12-14T10:20:26.420Z,26.88
2022-12-14T10:22:54.710Z,27.05
2022-12-14T10:25:26.457Z,26.90
2022-12-14T10:28:10.985Z,27.70
2022-12-14T10:30:43.799Z,25.40
2022-12-14T10:33:18.567Z,26.48
2022-12-14T10:35:52.678Z,26.00
2022-12-14T10:38:27.724Z,24.92
2022-12-14T10:41:01.724Z,27.05
2022-12-14T10:43:43.264Z,27.10
2022-12-14T10:46:19.801Z,26.02
2022-12-14T10:48:53.674Z,26.33
2022-12-14T10:51:24.958Z,38.08
2022-12-14T11:10:42.790Z,29.55
2022-12-14T11:13:49.668Z,30.85
2022-12-14T11:19:42.477Z,27.13
2022-12-14T11:23:23.429Z,29.67
2022-12-14T11:26:04.810Z,27.98
2022-12-14T11:28:39.892Z,27.42
2022-12-14T11:31:12.402Z,29.15
2022-12-14T11:33:50.365Z,29.65
2022-12-14T11:36:26.799Z,30.45
2022-12-14T11:39:24.996Z,28.23
2022-12-14T11:42:09.788Z,28.23
2022-12-14T11:44:39.431Z,32.35
2022-12-14T11:47:10.762Z,29.13
2022-12-14T11:49:46.544Z,27.23
2022-12-14T11:52:19.864Z,27.23
2022-12-14T14:34:47.762Z,27.00
2022-12-14T16:04:39.599Z,28.25
2022-12-14T16:07:10.031Z,29.52
2022-12-14T16:09:40.550Z,35.38
2022-12-14T16:12:10.933Z,41.47
2022-12-14T16:14:45.486Z,33.80
2022-12-14T16:17:14.997Z,28.98
2022-12-14T16:19:59.667Z,29.52
2022-12-14T16:22:29.770Z,28.88
2022-12-14T16:25:17.488Z,28.30
2022-12-14T16:27:49.988Z,24.95
2022-12-14T16:30:24.113Z,25.15
2022-12-14T16:32:54.787Z,25.08
2022-12-14T16:35:25.283Z,25.42
2022-12-14T16:37:55.907Z,24.88
2022-12-14T16:40:34.842Z,25.73
2022-12-14T16:43:02.975Z,24.70
2022-12-14T16:46:07.978Z,24.55
2022-12-14T16:48:38.181Z,23.85
2022-12-14T16:51:50.864Z,25.15
2022-12-14T16:54:23.877Z,24.95
2022-12-14T16:56:55.493Z,23.45
2022-12-14T16:59:25.006Z,22.00
2022-12-14T17:01:53.147Z,20.98
2022-12-14T17:04:21.721Z,21.40
2022-12-14T17:06:53.395Z,20.98
2022-12-14T17:09:22.976Z,19.92
2022-12-14T17:11:52.228Z,25.65
2022-12-14T17:14:20.423Z,24.17
2022-12-14T17:16:50.090Z,23.92
2022-12-14T17:19:21.562Z,26.35
2022-12-14T17:21:51.986Z,25.85
2022-12-14T17:24:21.181Z,25.58
2022-12-14T17:26:50.119Z,28.30
2022-12-14T17:29:21.538Z,28.00
2022-12-14T17:31:50.229Z,27.08
2022-12-14T17:34:18.946Z,28.00
2022-12-14T17:36:46.899Z,29.20
2022-12-14T17:39:16.028Z,30.60
2022-12-14T17:41:45.047Z,26.95
2022-12-14T17:44:14.678Z,23.73
2022-12-14T17:46:42.595Z,35.83
2022-12-14T17:49:13.296Z,25.85
2022-12-14T17:51:42.336Z,26.40
2022-12-14T17:54:16.895Z,23.60
2022-12-14T17:56:45.603Z,31.13
2022-12-14T17:59:13.464Z,27.90
2022-12-14T18:01:42.235Z,34.35
2022-12-14T18:04:10.184Z,28.38
2022-12-14T18:06:38.027Z,22.40
2022-12-14T18:09:07.921Z,22.45
2022-12-14T18:11:45.178Z,22.33
2022-12-14T18:14:25.162Z,25.65
2022-12-14T18:16:53.803Z,25.98
2022-12-14T18:19:21.509Z,22.30
2022-12-14T18:21:49.521Z,22.75
2022-12-14T18:24:22.704Z,19.58
2022-12-14T18:26:54.876Z,23.35
2022-12-14T18:29:22.600Z,21.67
2022-12-14T18:31:50.431Z,20.63
2022-12-14T18:34:18.469Z,19.48
2022-12-14T18:36:46.184Z,19.33
2022-12-14T18:39:13.869Z,19.55
2022-12-14T18:41:41.536Z,22.00
2022-12-14T18:44:11.752Z,21.42
2022-12-14T18:46:40.335Z,22.35
2022-12-14T18:49:08.048Z,26.10
2022-12-14T18:51:35.787Z,20.40
2022-12-14T18:54:03.952Z,20.90
2022-12-14T18:56:31.856Z,22.45
2022-12-14T18:59:00.435Z,20.35
2022-12-14T19:01:29.815Z,22.00
2022-12-14T19:03:57.811Z,21.25
2022-12-14T19:21:26.408Z,25.08
2022-12-14T19:23:58.362Z,22.52
2022-12-14T19:26:28.131Z,25.63
2022-12-14T19:28:55.991Z,23.95
2022-12-14T19:31:24.220Z,22.35
2022-12-14T19:33:53.698Z,20.52
2022-12-14T19:36:22.839Z,19.83
2022-12-14T19:38:50.939Z,22.65
2022-12-14T19:41:21.367Z,22.30
2022-12-14T19:43:49.226Z,23.25
2022-12-14T19:46:18.024Z,23.42
2022-12-14T19:48:46.044Z,22.52
2022-12-14T19:51:14.800Z,21.67
2022-12-14T19:53:44.952Z,28.42
2022-12-14T19:56:15.511Z,24.42
2022-12-14T19:58:43.188Z,21.67
2022-12-14T20:01:12.027Z,20.15
2022-12-14T20:03:40.214Z,19.67
2022-12-14T20:06:08.519Z,18.45
2022-12-14T20:08:36.919Z,20.35
2022-12-14T20:11:07.497Z,19.45
2022-12-14T20:13:35.231Z,19.92
2022-12-14T20:16:03.071Z,19.60
2022-12-14T20:18:31.889Z,19.30
2022-12-14T20:21:03.129Z,19.38
2022-12-14T20:23:31.150Z,14.82
2022-12-14T20:26:01.153Z,18.67
2022-12-14T20:28:30.299Z,19.08
2022-12-14T20:30:58.126Z,19.27
2022-12-14T20:33:30.228Z,18.85
2022-12-14T20:35:58.633Z,20.25
2022-12-14T20:38:26.506Z,19.80
2022-12-14T20:40:54.667Z,20.05
2022-12-14T20:43:22.516Z,20.92
2022-12-14T20:45:51.658Z,18.42
2022-12-14T20:48:19.813Z,18.65
2022-12-14T20:50:51.126Z,19.58
2022-12-14T20:53:18.891Z,23.48
2022-12-14T20:55:46.622Z,28.02
2022-12-14T20:58:14.412Z,30.77
2022-12-14T21:00:42.373Z,29.45
2022-12-14T21:03:11.563Z,26.10
2022-12-14T21:05:40.680Z,23.60
2022-12-14T21:08:08.348Z,20.55
2022-12-14T21:10:36.596Z,20.67
2022-12-14T21:13:07.601Z,21.05
2022-12-14T21:15:36.468Z,28.85
2022-12-14T21:18:04.313Z,22.83
2022-12-14T21:20:33.461Z,18.92
2022-12-14T21:23:01.174Z,29.83
2022-12-14T21:25:28.812Z,23.90
2022-12-14T21:27:56.473Z,24.70
2022-12-14T21:30:24.140Z,20.30
2022-12-14T21:32:51.911Z,20.70
2022-12-14T21:35:19.532Z,20.80
2022-12-14T21:37:48.627Z,20.27
2022-12-14T21:40:36.350Z,21.20
2022-12-14T21:43:03.968Z,19.63
2022-12-14T21:45:31.650Z,20.83
2022-12-14T21:47:59.397Z,20.45
2022-12-14T21:50:27.051Z,20.42
2022-12-14T21:52:56.029Z,20.73
2022-12-14T21:55:23.784Z,20.40
2022-12-14T21:58:08.782Z,20.60
2022-12-14T22:00:38.457Z,20.00
2022-12-14T22:03:06.184Z,21.23
2022-12-14T22:05:33.930Z,21.25
2022-12-14T22:08:03.067Z,17.40
2022-12-14T22:10:30.746Z,19.73
2022-12-14T22:12:58.472Z,19.63
2022-12-14T22:15:26.162Z,17.58
2022-12-14T22:17:53.843Z,17.35
2022-12-14T22:20:21.531Z,15.23
2022-12-14T22:22:49.190Z,16.55
2022-12-14T22:25:18.238Z,16.67
2022-12-14T22:27:50.079Z,16.20
2022-12-14T22:32:45.506Z,15.30
2022-12-14T22:35:13.262Z,14.00
2022-12-14T22:37:40.911Z,16.05
2022-12-14T22:40:09.830Z,16.00
2022-12-14T22:42:38.900Z,17.20
2022-12-14T22:45:07.602Z,16.20
2022-12-14T22:47:35.302Z,15.75
2022-12-14T22:50:03.079Z,15.50
2022-12-14T22:52:30.740Z,14.32
2022-12-14T22:54:58.660Z,13.98
2022-12-14T22:57:26.415Z,14.77
2022-12-14T22:59:58.117Z,13.65
2022-12-14T23:02:26.143Z,15.38
2022-12-14T23:04:54.088Z,14.27
2022-12-14T23:07:21.821Z,13.75
2022-12-14T23:10:07.285Z,15.45
2022-12-14T23:12:52.254Z,16.48
2022-12-14T23:15:38.689Z,15.30
2022-12-14T23:18:25.161Z,16.10
2022-12-14T23:21:10.809Z,15.73
2022-12-14T23:23:56.750Z,16.55
2022-12-14T23:26:41.883Z,17.80
2022-12-14T23:29:27.308Z,17.02
2022-12-14T23:32:14.471Z,16.17
2022-12-14T23:34:59.481Z,16.13
2022-12-14T23:37:44.893Z,15.18
2022-12-14T23:40:30.245Z,16.17
2022-12-14T23:43:15.499Z,17.52
2022-12-14T23:46:01.408Z,16.05
2022-12-14T23:48:48.036Z,16.48
2022-12-14T23:51:33.396Z,16.27
2022-12-14T23:54:18.683Z,16.65
2022-12-14T23:57:03.876Z,15.45
2022-12-14T23:59:49.741Z,15.50
